Terminal Aerodrome Forecast
Issued by NWS Riverton, WY

Home | Current Version | Previous Version | Text Only | Print | Product List | Glossary On
Versions: 1 2 3 4 5 6 7 8 9 10 11 12 13 14 15 16 17
750
FTUS45 KRIW 262338
TAFRIW
TAF
KRIW 262338Z 2700/2724 03007KT P6SM -SHRA SCT015 OVC025
     FM270300 01007KT P6SM VCSH BKN025 OVC040
     FM270700 34008KT P6SM BKN040
     FM271200 31010G18KT P6SM SCT070 SCT150=

USA.gov is the U.S. government's official web portal to all federal, state and local government web resources and services.